Time;durP1;ratioP1;P1;durP2;ratioP2;P2;SDS_P1;SDS_P2;PMS_P1;PMS_P2;Temp;Humidity;BMP_temperature;BMP_pressure;BME280_temperature;BME280_humidity;BME280_pressure;Samples;Min_cycle;Max_cycle;Signal;HPM_P1;HPM_P2
2023/08/23 00:01:54;;;;;;;13.10;5.28;;;;;;;;;;5027290;28;20025;-73
2023/08/23 00:04:20;;;;;;;13.32;5.88;;;;;;;;;;5031666;28;20040;-75
2023/08/23 00:06:46;;;;;;;11.50;5.68;;;;;;;;;;5031460;28;20044;-74
2023/08/23 00:09:12;;;;;;;15.00;5.90;;;;;;;;;;5031875;28;20027;-74
2023/08/23 00:11:38;;;;;;;13.63;6.70;;;;;;;;;;5031847;28;20488;-72
2023/08/23 00:14:04;;;;;;;14.25;6.47;;;;;;;;;;5031395;28;20022;-73
2023/08/23 00:16:30;;;;;;;18.55;6.80;;;;;;;;;;5031708;28;20582;-74
2023/08/23 00:18:56;;;;;;;14.38;5.90;;;;;;;;;;5034319;28;20087;-74
2023/08/23 00:21:22;;;;;;;14.98;6.72;;;;;;;;;;5031614;28;20013;-74
2023/08/23 00:23:48;;;;;;;13.82;7.55;;;;;;;;;;5034848;28;20021;-75
2023/08/23 00:26:14;;;;;;;22.80;7.57;;;;;;;;;;5034618;28;20033;-74
2023/08/23 00:28:41;;;;;;;23.17;9.63;;;;;;;;;;5036294;28;20118;-74
2023/08/23 00:31:07;;;;;;;17.08;8.60;;;;;;;;;;5034072;28;20022;-74
2023/08/23 00:33:33;;;;;;;19.58;9.38;;;;;;;;;;5034032;28;20029;-75
2023/08/23 00:35:59;;;;;;;17.95;7.72;;;;;;;;;;5033879;28;20555;-75
2023/08/23 00:38:25;;;;;;;18.10;8.27;;;;;;;;;;5033606;28;20029;-75
2023/08/23 00:40:51;;;;;;;17.80;7.80;;;;;;;;;;5034351;28;20041;-75
2023/08/23 00:43:17;;;;;;;15.25;8.40;;;;;;;;;;5035026;28;20065;-74
2023/08/23 00:45:43;;;;;;;16.58;8.10;;;;;;;;;;5035159;28;20026;-75
2023/08/23 00:48:10;;;;;;;16.17;8.60;;;;;;;;;;5035054;28;20040;-75
2023/08/23 00:50:36;;;;;;;20.30;8.77;;;;;;;;;;5035227;28;20022;-74
2023/08/23 00:53:03;;;;;;;22.58;10.85;;;;;;;;;;5034879;28;20024;-74
2023/08/23 00:55:29;;;;;;;25.80;12.02;;;;;;;;;;5034930;28;20356;-75
2023/08/23 00:57:55;;;;;;;28.73;14.60;;;;;;;;;;5035120;28;20025;-73
2023/08/23 01:00:21;;;;;;;29.48;13.90;;;;;;;;;;5035088;28;20066;-74
2023/08/23 01:02:48;;;;;;;28.10;14.48;;;;;;;;;;5034637;28;20036;-73
2023/08/23 01:05:14;;;;;;;29.05;14.90;;;;;;;;;;5034963;28;20029;-74
2023/08/23 01:07:45;;;;;;;34.38;16.55;;;;;;;;;;5034889;28;20040;-73
2023/08/23 01:10:17;;;;;;;33.58;15.70;;;;;;;;;;5035073;28;20029;-73
2023/08/23 01:12:45;;;;;;;26.67;13.65;;;;;;;;;;5034844;28;20047;-73
2023/08/23 01:15:12;;;;;;;25.27;14.02;;;;;;;;;;5034683;28;20039;-73
2023/08/23 01:17:41;;;;;;;28.05;15.23;;;;;;;;;;5034830;28;20562;-73
2023/08/23 01:20:08;;;;;;;28.05;15.02;;;;;;;;;;5035323;28;20036;-75
2023/08/23 01:22:36;;;;;;;29.95;14.75;;;;;;;;;;5036242;28;20549;-73
2023/08/23 01:25:02;;;;;;;26.00;14.52;;;;;;;;;;5034703;28;20022;-74
2023/08/23 01:27:28;;;;;;;28.77;14.30;;;;;;;;;;5034313;28;20112;-74
2023/08/23 01:29:54;;;;;;;27.98;16.10;;;;;;;;;;5034544;28;20092;-73
2023/08/23 01:32:30;;;;;;;27.33;15.70;;;;;;;;;;5034518;28;20446;-74
2023/08/23 01:34:59;;;;;;;30.45;16.13;;;;;;;;;;5034587;28;20021;-74
2023/08/23 01:37:25;;;;;;;28.52;15.25;;;;;;;;;;5033800;28;20033;-75
2023/08/23 01:39:55;;;;;;;28.40;14.43;;;;;;;;;;5033872;28;20548;-75
2023/08/23 01:42:22;;;;;;;34.72;16.50;;;;;;;;;;5033895;28;20036;-75
2023/08/23 01:44:50;;;;;;;32.83;16.33;;;;;;;;;;5034053;28;20030;-74
2023/08/23 01:47:17;;;;;;;31.42;17.30;;;;;;;;;;5033885;28;20029;-74
2023/08/23 01:49:43;;;;;;;31.33;18.70;;;;;;;;;;5034067;28;20022;-76
2023/08/23 01:52:09;;;;;;;36.55;15.82;;;;;;;;;;5034231;28;20032;-75
2023/08/23 01:54:35;;;;;;;31.92;15.93;;;;;;;;;;5036220;28;20030;-73
2023/08/23 01:57:01;;;;;;;30.98;16.98;;;;;;;;;;5035083;28;20079;-73
2023/08/23 01:59:27;;;;;;;34.15;17.92;;;;;;;;;;5034202;28;20064;-73
2023/08/23 02:01:53;;;;;;;31.85;17.85;;;;;;;;;;5033604;28;20029;-73
2023/08/23 02:04:20;;;;;;;40.25;21.55;;;;;;;;;;5033677;28;20030;-74
2023/08/23 02:06:46;;;;;;;38.95;20.13;;;;;;;;;;5033502;28;20025;-74
2023/08/23 02:09:12;;;;;;;41.67;20.92;;;;;;;;;;5033509;28;20029;-75
2023/08/23 02:11:38;;;;;;;37.90;20.33;;;;;;;;;;5033920;28;20026;-79
2023/08/23 02:14:04;;;;;;;39.72;22.25;;;;;;;;;;5031939;28;20550;-74
2023/08/23 02:16:30;;;;;;;42.10;21.40;;;;;;;;;;5048066;28;20025;-75
2023/08/23 02:18:56;;;;;;;38.72;20.92;;;;;;;;;;5033107;28;20116;-76
2023/08/23 02:21:23;;;;;;;37.22;19.02;;;;;;;;;;5025260;28;20022;-75
2023/08/23 02:23:49;;;;;;;37.08;19.10;;;;;;;;;;5032244;28;20038;-75
2023/08/23 02:26:16;;;;;;;37.30;18.98;;;;;;;;;;5032813;28;20037;-73
2023/08/23 02:28:42;;;;;;;35.90;19.35;;;;;;;;;;5032656;28;20031;-74
2023/08/23 02:31:08;;;;;;;38.75;19.33;;;;;;;;;;5032803;28;20467;-74
2023/08/23 02:33:34;;;;;;;38.33;18.05;;;;;;;;;;5032049;28;20020;-74
2023/08/23 02:36:00;;;;;;;37.40;20.10;;;;;;;;;;5032740;28;20091;-74
2023/08/23 02:38:26;;;;;;;34.28;18.13;;;;;;;;;;5032693;28;20116;-74
2023/08/23 02:40:55;;;;;;;31.75;17.10;;;;;;;;;;5032760;28;20392;-75
2023/08/23 02:43:21;;;;;;;36.53;18.67;;;;;;;;;;5031889;28;20018;-75
2023/08/23 02:45:47;;;;;;;33.88;17.45;;;;;;;;;;5032769;28;20087;-74
2023/08/23 02:48:13;;;;;;;34.78;18.05;;;;;;;;;;5032324;28;20109;-74
2023/08/23 02:50:40;;;;;;;35.58;17.27;;;;;;;;;;5032368;28;20025;-76
2023/08/23 02:53:06;;;;;;;32.03;17.58;;;;;;;;;;5031291;28;20449;-73
2023/08/23 02:55:38;;;;;;;36.25;17.77;;;;;;;;;;5023462;28;20372;-74
2023/08/23 02:58:04;;;;;;;41.45;17.33;;;;;;;;;;5020656;28;20064;-75
2023/08/23 03:00:30;;;;;;;35.17;17.42;;;;;;;;;;5032468;28;20034;-75
2023/08/23 03:02:56;;;;;;;29.90;17.38;;;;;;;;;;5016677;28;20053;-73
2023/08/23 03:05:23;;;;;;;34.38;17.02;;;;;;;;;;5030347;28;20391;-74
2023/08/23 03:07:48;;;;;;;40.38;17.98;;;;;;;;;;5031885;28;20029;-74
2023/08/23 03:10:15;;;;;;;27.17;16.00;;;;;;;;;;5032184;28;20079;-74
2023/08/23 03:12:40;;;;;;;28.48;15.50;;;;;;;;;;5031180;28;20029;-74
2023/08/23 03:15:07;;;;;;;31.10;15.25;;;;;;;;;;5031999;28;20168;-74
2023/08/23 03:17:33;;;;;;;29.98;16.23;;;;;;;;;;5031676;28;20040;-74
2023/08/23 03:19:59;;;;;;;31.40;17.38;;;;;;;;;;5031056;28;20108;-73
2023/08/23 03:22:25;;;;;;;33.28;16.77;;;;;;;;;;5031001;28;20021;-74
2023/08/23 03:24:51;;;;;;;35.03;17.63;;;;;;;;;;5033572;28;20033;-75
2023/08/23 03:27:18;;;;;;;30.63;16.92;;;;;;;;;;5037933;28;20044;-74
2023/08/23 03:29:46;;;;;;;28.33;15.70;;;;;;;;;;5037687;28;20535;-74
2023/08/23 03:32:12;;;;;;;28.08;14.70;;;;;;;;;;5023999;28;20024;-74
2023/08/23 03:34:38;;;;;;;29.77;15.43;;;;;;;;;;5033865;28;20029;-75
2023/08/23 03:37:04;;;;;;;30.48;15.65;;;;;;;;;;5016573;28;20030;-77
2023/08/23 03:39:30;;;;;;;26.98;14.68;;;;;;;;;;5014338;28;20419;-75
2023/08/23 03:41:56;;;;;;;29.30;14.60;;;;;;;;;;5014820;28;20025;-74
2023/08/23 03:44:22;;;;;;;30.05;16.10;;;;;;;;;;5029420;28;20026;-75
2023/08/23 03:46:48;;;;;;;32.60;16.33;;;;;;;;;;5013144;28;20025;-75
2023/08/23 03:49:14;;;;;;;30.58;16.10;;;;;;;;;;5012625;28;20454;-75
2023/08/23 03:51:40;;;;;;;34.45;16.77;;;;;;;;;;5014646;28;20065;-75
2023/08/23 03:54:06;;;;;;;29.00;15.27;;;;;;;;;;5011820;28;20049;-76
2023/08/23 03:56:32;;;;;;;30.17;16.40;;;;;;;;;;5012017;28;20022;-77
2023/08/23 03:58:58;;;;;;;28.58;14.73;;;;;;;;;;5011966;28;20066;-75
2023/08/23 04:01:24;;;;;;;33.25;16.02;;;;;;;;;;5012255;28;20036;-75
2023/08/23 04:03:50;;;;;;;32.15;15.40;;;;;;;;;;5011625;28;20030;-74
2023/08/23 04:06:16;;;;;;;31.77;15.40;;;;;;;;;;5012215;28;20036;-74
2023/08/23 04:08:42;;;;;;;32.00;15.25;;;;;;;;;;5011901;28;20057;-75
2023/08/23 04:11:08;;;;;;;29.20;15.55;;;;;;;;;;5012204;28;20387;-75
2023/08/23 04:13:34;;;;;;;25.83;14.75;;;;;;;;;;5011727;28;20026;-75
2023/08/23 04:16:00;;;;;;;27.30;15.57;;;;;;;;;;5013621;28;20026;-76
2023/08/23 04:18:26;;;;;;;28.02;15.48;;;;;;;;;;5016898;28;20048;-75
2023/08/23 04:20:59;;;;;;;30.35;16.08;;;;;;;;;;5020435;28;20392;-79
2023/08/23 04:23:25;;;;;;;26.48;16.08;;;;;;;;;;5034543;28;20026;-75
2023/08/23 04:25:51;;;;;;;33.75;16.08;;;;;;;;;;5018430;28;20480;-75
2023/08/23 04:28:17;;;;;;;24.65;13.98;;;;;;;;;;5017035;28;20063;-74
2023/08/23 04:30:44;;;;;;;26.80;14.52;;;;;;;;;;5015782;28;20029;-75
2023/08/23 04:33:10;;;;;;;32.10;14.18;;;;;;;;;;5015322;28;20022;-74
2023/08/23 04:35:36;;;;;;;26.45;13.68;;;;;;;;;;5015699;28;20022;-75
2023/08/23 04:38:03;;;;;;;27.48;14.30;;;;;;;;;;5015942;28;20254;-74
2023/08/23 04:40:29;;;;;;;25.65;14.27;;;;;;;;;;5016061;28;20092;-76
2023/08/23 04:42:55;;;;;;;28.90;15.80;;;;;;;;;;5015769;28;20030;-75
2023/08/23 04:45:21;;;;;;;31.73;15.68;;;;;;;;;;5031171;28;20041;-76
2023/08/23 04:47:47;;;;;;;27.90;15.38;;;;;;;;;;5016471;28;20034;-77
2023/08/23 04:50:13;;;;;;;31.77;15.50;;;;;;;;;;5020244;28;20034;-75
2023/08/23 04:52:39;;;;;;;34.38;16.35;;;;;;;;;;5017200;28;20403;-74
2023/08/23 04:55:05;;;;;;;34.05;17.75;;;;;;;;;;5015362;28;20025;-76
2023/08/23 04:57:33;;;;;;;31.42;16.35;;;;;;;;;;5015311;28;20029;-74
2023/08/23 04:59:59;;;;;;;29.35;16.05;;;;;;;;;;5015988;28;20061;-74
2023/08/23 05:02:25;;;;;;;34.92;16.35;;;;;;;;;;5016222;28;20439;-76
2023/08/23 05:04:51;;;;;;;34.30;17.52;;;;;;;;;;5015369;28;20034;-75
2023/08/23 05:07:17;;;;;;;28.35;16.83;;;;;;;;;;5015642;28;20030;-76
2023/08/23 05:09:43;;;;;;;37.17;17.73;;;;;;;;;;5015680;28;20024;-74
2023/08/23 05:12:09;;;;;;;31.42;17.58;;;;;;;;;;5015332;28;20024;-74
2023/08/23 05:14:35;;;;;;;35.30;17.30;;;;;;;;;;5015684;28;20113;-75
2023/08/23 05:17:01;;;;;;;27.98;16.13;;;;;;;;;;5021847;28;20030;-75
2023/08/23 05:19:27;;;;;;;27.17;15.80;;;;;;;;;;5044644;28;20045;-73
2023/08/23 05:21:53;;;;;;;33.35;16.90;;;;;;;;;;5022887;28;20029;-75
2023/08/23 05:24:19;;;;;;;31.25;15.45;;;;;;;;;;5037302;28;20017;-75
2023/08/23 05:26:45;;;;;;;24.77;15.65;;;;;;;;;;5036284;28;20117;-74
2023/08/23 05:29:11;;;;;;;23.30;14.50;;;;;;;;;;5034271;28;20029;-75
2023/08/23 05:31:37;;;;;;;28.35;14.98;;;;;;;;;;5032864;28;20483;-77
2023/08/23 05:34:03;;;;;;;28.70;14.10;;;;;;;;;;5034514;28;20076;-76
2023/08/23 05:36:29;;;;;;;33.72;13.65;;;;;;;;;;5031727;28;20545;-75
2023/08/23 05:38:56;;;;;;;23.70;13.10;;;;;;;;;;5031592;28;20057;-75
2023/08/23 05:41:22;;;;;;;28.55;13.50;;;;;;;;;;5035599;28;20017;-78
2023/08/23 05:43:48;;;;;;;25.08;12.23;;;;;;;;;;5034556;28;20035;-77
2023/08/23 05:46:13;;;;;;;29.48;11.98;;;;;;;;;;5034875;28;20021;-75
2023/08/23 05:48:39;;;;;;;25.65;12.10;;;;;;;;;;5034670;28;20040;-77
2023/08/23 05:51:06;;;;;;;21.77;10.88;;;;;;;;;;5034703;28;20045;-75
2023/08/23 05:53:31;;;;;;;22.88;10.77;;;;;;;;;;5036111;28;20467;-76
2023/08/23 05:55:57;;;;;;;25.45;10.60;;;;;;;;;;5032446;28;20039;-77
2023/08/23 05:58:25;;;;;;;23.55;10.55;;;;;;;;;;5033903;28;20109;-75
2023/08/23 06:00:51;;;;;;;23.55;10.75;;;;;;;;;;5040755;28;20053;-76
2023/08/23 06:03:17;;;;;;;20.90;10.38;;;;;;;;;;5033147;28;20025;-75
2023/08/23 06:05:46;;;;;;;22.50;10.32;;;;;;;;;;5031873;28;20119;-75
2023/08/23 06:08:12;;;;;;;23.55;10.88;;;;;;;;;;5032427;28;20060;-77
2023/08/23 06:10:38;;;;;;;19.98;9.30;;;;;;;;;;5034575;28;20080;-76
2023/08/23 06:13:04;;;;;;;20.00;9.27;;;;;;;;;;5034566;28;20026;-76
2023/08/23 06:15:30;;;;;;;15.63;8.40;;;;;;;;;;5034228;28;20116;-77
2023/08/23 06:17:56;;;;;;;20.50;8.25;;;;;;;;;;5032087;28;20057;-76
2023/08/23 06:20:22;;;;;;;15.43;6.57;;;;;;;;;;5033610;28;20029;-77
2023/08/23 06:22:48;;;;;;;18.80;9.70;;;;;;;;;;5033669;28;20091;-76
2023/08/23 06:25:14;;;;;;;23.08;8.43;;;;;;;;;;5034805;28;20029;-75
2023/08/23 06:27:41;;;;;;;21.88;7.88;;;;;;;;;;5033538;28;20056;-76
2023/08/23 06:30:07;;;;;;;13.30;7.18;;;;;;;;;;5033602;28;20021;-76
2023/08/23 06:32:33;;;;;;;12.05;5.75;;;;;;;;;;5036364;28;20144;-76
2023/08/23 06:34:59;;;;;;;14.75;6.50;;;;;;;;;;5037979;28;20041;-76
2023/08/23 06:37:25;;;;;;;16.65;6.90;;;;;;;;;;5044966;28;20041;-77
2023/08/23 06:39:51;;;;;;;14.45;5.88;;;;;;;;;;5041421;28;20450;-78
2023/08/23 06:42:17;;;;;;;17.08;6.40;;;;;;;;;;5038772;28;20036;-77
2023/08/23 06:44:46;;;;;;;12.27;5.88;;;;;;;;;;5033631;28;20104;-74
2023/08/23 06:47:13;;;;;;;11.02;5.00;;;;;;;;;;5033224;28;20375;-75
2023/08/23 06:49:39;;;;;;;15.95;5.03;;;;;;;;;;5039596;28;20052;-79
2023/08/23 06:52:05;;;;;;;19.95;6.28;;;;;;;;;;5036997;28;20025;-77
2023/08/23 06:54:31;;;;;;;13.15;4.57;;;;;;;;;;5033412;28;20398;-75
2023/08/23 06:56:57;;;;;;;16.13;5.60;;;;;;;;;;5034709;28;20032;-76
2023/08/23 06:59:23;;;;;;;14.35;5.00;;;;;;;;;;5038482;28;20021;-77
2023/08/23 07:01:49;;;;;;;13.98;5.72;;;;;;;;;;5040639;28;20029;-78
2023/08/23 07:04:15;;;;;;;20.23;5.80;;;;;;;;;;5048406;28;20018;-75
2023/08/23 07:06:41;;;;;;;20.40;6.15;;;;;;;;;;5055305;28;20049;-76
2023/08/23 07:09:07;;;;;;;12.82;5.10;;;;;;;;;;5053726;28;20036;-77
2023/08/23 07:11:33;;;;;;;12.73;4.85;;;;;;;;;;5045497;28;20083;-75
2023/08/23 07:13:59;;;;;;;18.67;5.00;;;;;;;;;;5037061;28;20033;-75
2023/08/23 07:16:25;;;;;;;12.98;4.35;;;;;;;;;;5038005;28;20419;-74
2023/08/23 07:18:51;;;;;;;12.63;3.88;;;;;;;;;;5036318;28;20033;-75
2023/08/23 07:21:17;;;;;;;12.57;3.67;;;;;;;;;;5034370;28;20026;-74
2023/08/23 07:23:43;;;;;;;12.32;3.65;;;;;;;;;;5032246;28;20029;-73
2023/08/23 07:26:09;;;;;;;10.35;3.40;;;;;;;;;;5032179;28;20107;-73
2023/08/23 07:28:35;;;;;;;11.93;3.63;;;;;;;;;;5032170;28;20025;-76
2023/08/23 07:31:02;;;;;;;11.60;3.30;;;;;;;;;;5032225;28;20029;-75
2023/08/23 07:33:28;;;;;;;14.15;3.50;;;;;;;;;;5031854;28;20052;-73
2023/08/23 07:35:58;;;;;;;13.07;3.40;;;;;;;;;;5032092;28;20119;-75
2023/08/23 07:38:24;;;;;;;11.35;3.30;;;;;;;;;;5031307;28;20087;-75
2023/08/23 07:40:50;;;;;;;10.38;2.97;;;;;;;;;;5031788;28;20034;-75
2023/08/23 07:43:16;;;;;;;11.43;3.00;;;;;;;;;;5031723;28;20364;-73
2023/08/23 07:45:42;;;;;;;9.35;2.40;;;;;;;;;;5031836;28;20017;-74
2023/08/23 07:48:08;;;;;;;7.90;2.50;;;;;;;;;;5032680;28;20029;-76
2023/08/23 07:50:35;;;;;;;8.25;2.25;;;;;;;;;;5032506;28;20472;-75
2023/08/23 07:53:01;;;;;;;11.18;2.85;;;;;;;;;;5032090;28;20466;-76
2023/08/23 07:55:27;;;;;;;9.50;2.92;;;;;;;;;;5032906;28;20022;-77
2023/08/23 07:57:53;;;;;;;8.70;2.53;;;;;;;;;;5033564;28;20021;-76
2023/08/23 08:00:20;;;;;;;9.65;2.95;;;;;;;;;;5033384;28;20375;-74
2023/08/23 08:02:46;;;;;;;10.15;2.85;;;;;;;;;;5030504;28;20480;-73
2023/08/23 08:05:12;;;;;;;13.43;3.33;;;;;;;;;;5031328;28;20037;-74
2023/08/23 08:07:38;;;;;;;7.22;2.95;;;;;;;;;;5032488;28;20084;-74
2023/08/23 08:10:05;;;;;;;13.02;3.00;;;;;;;;;;5033536;28;20083;-77
2023/08/23 08:12:31;;;;;;;8.90;2.40;;;;;;;;;;5031236;28;20033;-75
2023/08/23 08:14:59;;;;;;;7.65;2.10;;;;;;;;;;5031334;28;20025;-74
2023/08/23 08:17:26;;;;;;;15.55;2.53;;;;;;;;;;5033112;28;20033;-75
2023/08/23 08:19:52;;;;;;;6.10;1.77;;;;;;;;;;5031694;28;20112;-82
2023/08/23 08:22:17;;;;;;;7.03;1.73;;;;;;;;;;5031656;28;20116;-76
2023/08/23 08:24:43;;;;;;;4.70;1.63;;;;;;;;;;5031937;28;20077;-74
2023/08/23 08:27:09;;;;;;;4.05;1.50;;;;;;;;;;5031188;28;20026;-75
2023/08/23 08:29:35;;;;;;;6.75;1.83;;;;;;;;;;5031871;28;20511;-75
2023/08/23 08:32:01;;;;;;;9.88;1.85;;;;;;;;;;5031555;28;20085;-76
2023/08/23 08:34:27;;;;;;;6.28;2.00;;;;;;;;;;5031856;28;20375;-74
2023/08/23 08:36:53;;;;;;;6.03;1.63;;;;;;;;;;5030589;28;20033;-74
2023/08/23 08:39:19;;;;;;;3.40;1.77;;;;;;;;;;5032287;28;20084;-74
2023/08/23 08:41:46;;;;;;;8.50;2.40;;;;;;;;;;5034550;28;20041;-75
2023/08/23 08:44:12;;;;;;;6.85;1.60;;;;;;;;;;5032073;28;20021;-76
2023/08/23 08:46:39;;;;;;;4.95;1.75;;;;;;;;;;5031702;28;20041;-75
2023/08/23 08:49:05;;;;;;;4.93;1.70;;;;;;;;;;5033027;28;20052;-75
2023/08/23 08:51:35;;;;;;;3.25;1.63;;;;;;;;;;5032966;28;20052;-75
2023/08/23 08:54:02;;;;;;;4.85;1.50;;;;;;;;;;5032972;28;20037;-75
2023/08/23 08:56:28;;;;;;;6.38;1.67;;;;;;;;;;5037170;28;20036;-74
2023/08/23 08:58:55;;;;;;;6.40;2.03;;;;;;;;;;5033583;28;20029;-74
2023/08/23 09:01:22;;;;;;;4.40;1.60;;;;;;;;;;5031159;28;20061;-74
2023/08/23 09:03:49;;;;;;;4.45;1.50;;;;;;;;;;5034716;28;20025;-73
2023/08/23 09:06:15;;;;;;;7.95;1.75;;;;;;;;;;5035912;28;20052;-75
2023/08/23 09:08:41;;;;;;;5.35;1.50;;;;;;;;;;5036936;28;20033;-75
2023/08/23 09:11:07;;;;;;;7.90;1.80;;;;;;;;;;5035288;28;20022;-77
2023/08/23 09:13:33;;;;;;;20.27;2.42;;;;;;;;;;5034333;28;20124;-75
2023/08/23 09:15:59;;;;;;;4.68;2.05;;;;;;;;;;5034645;28;20024;-75
2023/08/23 09:18:25;;;;;;;7.53;1.85;;;;;;;;;;5034521;28;20522;-75
2023/08/23 09:20:53;;;;;;;4.72;1.73;;;;;;;;;;5034076;28;20045;-75
2023/08/23 09:23:19;;;;;;;5.53;1.85;;;;;;;;;;5034526;28;20029;-75
2023/08/23 09:25:47;;;;;;;5.75;2.28;;;;;;;;;;5036573;28;20384;-74
2023/08/23 09:28:13;;;;;;;7.10;2.03;;;;;;;;;;5036623;28;20025;-76
2023/08/23 09:30:39;;;;;;;8.82;2.00;;;;;;;;;;5035158;28;20097;-75
2023/08/23 09:33:05;;;;;;;5.93;1.70;;;;;;;;;;5034188;28;20030;-75
2023/08/23 09:35:31;;;;;;;7.35;1.70;;;;;;;;;;5034793;28;20499;-75
2023/08/23 09:37:57;;;;;;;4.72;1.48;;;;;;;;;;5036038;28;20048;-73
2023/08/23 09:40:25;;;;;;;6.60;1.75;;;;;;;;;;5033795;28;20021;-74
2023/08/23 09:42:51;;;;;;;6.93;1.92;;;;;;;;;;5033600;28;20430;-73
2023/08/23 09:45:21;;;;;;;5.78;1.77;;;;;;;;;;5033655;28;20030;-74
2023/08/23 09:47:51;;;;;;;2.85;1.52;;;;;;;;;;5033652;28;20095;-74
2023/08/23 09:50:18;;;;;;;3.08;1.40;;;;;;;;;;5033593;28;20029;-75
2023/08/23 09:52:45;;;;;;;7.80;1.48;;;;;;;;;;5035052;28;20025;-75
2023/08/23 09:55:11;;;;;;;8.70;2.08;;;;;;;;;;5035238;28;20033;-75
2023/08/23 09:57:38;;;;;;;6.38;1.80;;;;;;;;;;5038510;28;20048;-75
2023/08/23 10:00:05;;;;;;;5.05;1.48;;;;;;;;;;5033436;28;20091;-76
2023/08/23 10:02:33;;;;;;;4.35;1.27;;;;;;;;;;5032905;28;20046;-75
2023/08/23 10:05:01;;;;;;;6.05;1.55;;;;;;;;;;5032993;28;20408;-74
2023/08/23 10:07:27;;;;;;;2.65;1.10;;;;;;;;;;5033050;28;20494;-74
2023/08/23 10:09:53;;;;;;;4.30;0.95;;;;;;;;;;5034207;28;20363;-77
2023/08/23 10:12:19;;;;;;;4.38;1.10;;;;;;;;;;5032897;28;20066;-74
2023/08/23 10:14:46;;;;;;;4.57;1.20;;;;;;;;;;5031901;28;20037;-75
2023/08/23 10:17:13;;;;;;;7.65;1.25;;;;;;;;;;5035862;28;20033;-74
2023/08/23 10:19:40;;;;;;;3.95;1.30;;;;;;;;;;5034998;28;20029;-74
2023/08/23 10:22:06;;;;;;;2.47;1.05;;;;;;;;;;5032742;28;20183;-76
2023/08/23 10:24:32;;;;;;;4.05;1.10;;;;;;;;;;5033392;28;20031;-74
2023/08/23 10:27:05;;;;;;;2.92;0.93;;;;;;;;;;5032886;28;20026;-77
2023/08/23 10:29:31;;;;;;;7.82;1.40;;;;;;;;;;5033345;28;20028;-76
2023/08/23 10:31:57;;;;;;;2.75;1.10;;;;;;;;;;5032530;28;20025;-74
2023/08/23 10:34:27;;;;;;;3.53;1.02;;;;;;;;;;5033443;28;20420;-75
2023/08/23 10:36:53;;;;;;;8.85;1.50;;;;;;;;;;5034413;28;20029;-75
2023/08/23 10:39:23;;;;;;;4.57;1.65;;;;;;;;;;5034545;28;20101;-75
2023/08/23 10:42:02;;;;;;;3.33;1.17;;;;;;;;;;5033379;28;20420;-75
2023/08/23 10:44:28;;;;;;;4.13;1.10;;;;;;;;;;5033204;28;20021;-74
2023/08/23 10:46:54;;;;;;;2.30;0.90;;;;;;;;;;5034205;28;20025;-74
2023/08/23 10:49:21;;;;;;;3.28;1.33;;;;;;;;;;5033644;28;20014;-74
2023/08/23 10:51:47;;;;;;;4.38;1.67;;;;;;;;;;5032364;28;20032;-75
2023/08/23 10:54:13;;;;;;;6.55;1.75;;;;;;;;;;5032486;28;20518;-75
2023/08/23 10:56:40;;;;;;;4.43;1.27;;;;;;;;;;5032657;28;20029;-74
2023/08/23 10:59:07;;;;;;;4.28;1.17;;;;;;;;;;5032256;28;20036;-75
2023/08/23 11:01:34;;;;;;;4.78;1.27;;;;;;;;;;5033892;28;20036;-74
2023/08/23 11:04:02;;;;;;;8.52;1.65;;;;;;;;;;5034630;28;20030;-75
2023/08/23 11:06:28;;;;;;;6.15;2.30;;;;;;;;;;5031498;28;20030;-76
2023/08/23 11:08:54;;;;;;;5.53;2.00;;;;;;;;;;5032629;28;20072;-74
2023/08/23 11:11:20;;;;;;;5.63;2.28;;;;;;;;;;5032597;28;20029;-75
2023/08/23 11:13:47;;;;;;;4.40;1.60;;;;;;;;;;5031655;28;20083;-75
2023/08/23 11:16:13;;;;;;;3.13;1.23;;;;;;;;;;5033033;28;20026;-78
2023/08/23 11:18:39;;;;;;;3.72;1.20;;;;;;;;;;5032988;28;20418;-76
2023/08/23 11:21:06;;;;;;;6.68;1.15;;;;;;;;;;5032419;28;20032;-75
2023/08/23 11:23:36;;;;;;;8.75;1.48;;;;;;;;;;5032702;28;20037;-74
2023/08/23 11:26:03;;;;;;;4.00;1.38;;;;;;;;;;5031617;28;20048;-75
2023/08/23 11:28:30;;;;;;;6.10;1.40;;;;;;;;;;5033350;28;20075;-75
2023/08/23 11:30:58;;;;;;;5.88;1.60;;;;;;;;;;5033948;28;20056;-75
2023/08/23 11:33:24;;;;;;;7.68;1.33;;;;;;;;;;5034348;28;20017;-74
2023/08/23 11:35:50;;;;;;;3.95;1.20;;;;;;;;;;5032109;28;20034;-74
2023/08/23 11:38:16;;;;;;;5.57;1.58;;;;;;;;;;5032127;28;20483;-74
2023/08/23 11:40:45;;;;;;;4.25;1.27;;;;;;;;;;5033064;28;20038;-76
2023/08/23 11:43:14;;;;;;;7.30;2.00;;;;;;;;;;5031554;28;20030;-75
2023/08/23 11:45:41;;;;;;;3.83;1.00;;;;;;;;;;5030295;28;20121;-74
2023/08/23 11:48:07;;;;;;;4.28;1.30;;;;;;;;;;5031175;28;20372;-74
2023/08/23 11:50:33;;;;;;;6.30;1.40;;;;;;;;;;5031583;28;20032;-76
2023/08/23 11:53:02;;;;;;;5.20;1.10;;;;;;;;;;5031561;28;20029;-75
2023/08/23 11:55:28;;;;;;;4.78;1.48;;;;;;;;;;5031689;28;20393;-76
2023/08/23 11:57:55;;;;;;;6.82;1.60;;;;;;;;;;5031470;28;20368;-74
2023/08/23 12:00:22;;;;;;;2.20;1.40;;;;;;;;;;5032254;28;20144;-77
2023/08/23 12:02:48;;;;;;;4.55;1.40;;;;;;;;;;5033343;28;20025;-74
2023/08/23 12:05:15;;;;;;;2.13;1.25;;;;;;;;;;5031452;28;20029;-75
2023/08/23 12:07:41;;;;;;;2.80;1.30;;;;;;;;;;5032647;28;20360;-75
2023/08/23 12:10:11;;;;;;;3.60;1.10;;;;;;;;;;5031983;28;20022;-75
2023/08/23 12:12:37;;;;;;;2.42;1.48;;;;;;;;;;5031015;28;20076;-76
2023/08/23 12:15:03;;;;;;;5.28;1.52;;;;;;;;;;5031145;28;20487;-74
2023/08/23 12:17:29;;;;;;;15.68;1.77;;;;;;;;;;5031542;28;20060;-76
2023/08/23 12:19:55;;;;;;;7.47;1.58;;;;;;;;;;5031800;28;20029;-74
2023/08/23 12:22:21;;;;;;;5.18;1.40;;;;;;;;;;5031496;28;20032;-75
2023/08/23 12:24:47;;;;;;;2.65;1.27;;;;;;;;;;5032510;28;20033;-75
2023/08/23 12:27:13;;;;;;;4.38;1.77;;;;;;;;;;5030969;28;20502;-76
2023/08/23 12:29:41;;;;;;;5.68;2.75;;;;;;;;;;5032590;28;20079;-74
2023/08/23 12:32:07;;;;;;;2.50;1.10;;;;;;;;;;5031590;28;20028;-75
2023/08/23 12:34:33;;;;;;;2.53;0.90;;;;;;;;;;5033349;28;20026;-75
2023/08/23 12:36:59;;;;;;;5.40;1.17;;;;;;;;;;5033687;28;20029;-75
2023/08/23 12:39:25;;;;;;;10.07;1.25;;;;;;;;;;5036783;28;20495;-75
2023/08/23 12:41:52;;;;;;;4.65;1.27;;;;;;;;;;5035777;28;20022;-74
2023/08/23 12:44:18;;;;;;;2.28;0.95;;;;;;;;;;5035082;28;20478;-75
2023/08/23 12:46:44;;;;;;;3.35;0.98;;;;;;;;;;5034721;28;20047;-74
2023/08/23 12:49:13;;;;;;;2.47;0.93;;;;;;;;;;5034482;28;20388;-75
2023/08/23 12:51:42;;;;;;;5.32;1.13;;;;;;;;;;5035197;28;20022;-76
2023/08/23 12:54:09;;;;;;;2.83;1.10;;;;;;;;;;5035574;28;20029;-76
2023/08/23 12:56:36;;;;;;;3.92;1.25;;;;;;;;;;5037687;28;20026;-75
2023/08/23 12:59:02;;;;;;;5.47;1.38;;;;;;;;;;5035808;28;20033;-76
2023/08/23 13:01:30;;;;;;;2.40;1.27;;;;;;;;;;5035084;28;20076;-75
2023/08/23 13:03:56;;;;;;;3.03;1.10;;;;;;;;;;5034987;28;20029;-77
2023/08/23 13:06:22;;;;;;;3.08;1.20;;;;;;;;;;5035794;28;20033;-76
2023/08/23 13:08:48;;;;;;;6.38;1.02;;;;;;;;;;5036231;28;20442;-75
2023/08/23 13:11:14;;;;;;;3.83;1.23;;;;;;;;;;5037220;28;20026;-74
2023/08/23 13:13:40;;;;;;;2.22;1.30;;;;;;;;;;5035514;28;20033;-74
2023/08/23 13:16:06;;;;;;;3.80;1.30;;;;;;;;;;5034732;28;20021;-74
2023/08/23 13:18:33;;;;;;;3.33;1.30;;;;;;;;;;5036518;28;20486;-75
2023/08/23 13:20:59;;;;;;;3.90;1.65;;;;;;;;;;5035823;28;20415;-75
2023/08/23 13:23:25;;;;;;;4.15;1.23;;;;;;;;;;5035717;28;20025;-74
2023/08/23 13:25:51;;;;;;;6.63;1.35;;;;;;;;;;5035678;28;20029;-76
2023/08/23 13:28:17;;;;;;;3.05;1.40;;;;;;;;;;5035091;28;20330;-74
2023/08/23 13:30:43;;;;;;;6.10;1.63;;;;;;;;;;5035024;28;20017;-74
2023/08/23 13:33:10;;;;;;;3.33;1.52;;;;;;;;;;5034447;28;20402;-75
2023/08/23 13:35:36;;;;;;;3.47;1.27;;;;;;;;;;5034915;28;20511;-77
2023/08/23 13:38:02;;;;;;;4.15;1.50;;;;;;;;;;5034592;28;20057;-78
2023/08/23 13:40:28;;;;;;;5.00;1.35;;;;;;;;;;5032880;28;20044;-76
2023/08/23 13:42:54;;;;;;;10.90;1.90;;;;;;;;;;5035603;28;20022;-75
2023/08/23 13:45:20;;;;;;;3.45;1.38;;;;;;;;;;5034700;28;20357;-76
2023/08/23 13:47:46;;;;;;;3.90;1.40;;;;;;;;;;5034633;28;20104;-75
2023/08/23 13:50:12;;;;;;;3.10;1.50;;;;;;;;;;5033917;28;20108;-75
2023/08/23 13:52:38;;;;;;;2.75;1.25;;;;;;;;;;5033690;28;20068;-77
2023/08/23 13:55:04;;;;;;;3.42;1.42;;;;;;;;;;5036273;28;20021;-76
2023/08/23 13:57:30;;;;;;;4.85;1.50;;;;;;;;;;5031571;28;20032;-75
2023/08/23 13:59:57;;;;;;;2.88;1.63;;;;;;;;;;5033266;28;20389;-76
2023/08/23 14:02:23;;;;;;;3.47;1.60;;;;;;;;;;5032390;28;20498;-74
2023/08/23 14:04:49;;;;;;;4.95;1.58;;;;;;;;;;5034120;28;20052;-76
2023/08/23 14:07:15;;;;;;;4.15;1.70;;;;;;;;;;5032402;28;20030;-74
2023/08/23 14:09:41;;;;;;;2.65;1.70;;;;;;;;;;5031929;28;20022;-75
2023/08/23 14:12:07;;;;;;;5.45;1.83;;;;;;;;;;5033750;28;20029;-76
2023/08/23 14:14:33;;;;;;;3.67;1.52;;;;;;;;;;5032913;28;20079;-76
2023/08/23 14:16:59;;;;;;;2.90;1.30;;;;;;;;;;5032445;28;20033;-74
2023/08/23 14:19:26;;;;;;;2.83;1.35;;;;;;;;;;5032270;28;20486;-76
2023/08/23 14:21:52;;;;;;;3.80;1.35;;;;;;;;;;5031044;28;20093;-76
2023/08/23 14:24:18;;;;;;;4.35;1.42;;;;;;;;;;5031940;28;20548;-75
2023/08/23 14:26:44;;;;;;;3.05;1.50;;;;;;;;;;5032028;28;20107;-75